Time;durP1;ratioP1;P1;durP2;ratioP2;P2;SDS_P1;SDS_P2;PMS_P1;PMS_P2;Temp;Humidity;BMP_temperature;BMP_pressure;BME280_temperature;BME280_humidity;BME280_pressure;Samples;Min_cycle;Max_cycle;Signal;HPM_P1;HPM_P2
2023/12/24 00:01:14;;;;;;;55.27;1.70;;;;;;;;;;5043272;28;20813;-69
2023/12/24 00:03:41;;;;;;;55.27;1.90;;;;;;;;;;5035274;28;20478;-71
2023/12/24 00:06:09;;;;;;;55.10;1.80;;;;;;;;;;5036875;28;20494;-71
2023/12/24 00:08:37;;;;;;;55.50;1.90;;;;;;;;;;5039990;28;20447;-71
2023/12/24 00:11:06;;;;;;;55.30;1.90;;;;;;;;;;5035351;28;20457;-71
2023/12/24 00:13:33;;;;;;;55.03;2.00;;;;;;;;;;5034968;28;20467;-71
2023/12/24 00:16:00;;;;;;;55.60;1.80;;;;;;;;;;5034812;28;21147;-71
2023/12/24 00:18:27;;;;;;;55.50;1.83;;;;;;;;;;5034848;28;20451;-72
2023/12/24 00:20:54;;;;;;;54.87;1.80;;;;;;;;;;5034888;28;20453;-72
2023/12/24 00:23:21;;;;;;;55.20;1.97;;;;;;;;;;5038784;28;21011;-69
2023/12/24 00:25:50;;;;;;;55.60;1.70;;;;;;;;;;5046471;28;20486;-68
2023/12/24 00:28:17;;;;;;;55.87;2.17;;;;;;;;;;5007975;28;1102751;-70
2023/12/24 00:30:45;;;;;;;55.07;1.70;;;;;;;;;;5039207;28;20579;-70
2023/12/24 00:33:12;;;;;;;55.37;1.70;;;;;;;;;;5034527;28;20469;-69
2023/12/24 00:35:39;;;;;;;55.30;1.80;;;;;;;;;;5050416;28;20465;-70
2023/12/24 00:38:06;;;;;;;55.30;1.80;;;;;;;;;;5036188;28;20467;-70
2023/12/24 00:40:35;;;;;;;55.37;1.87;;;;;;;;;;5035542;28;20464;-70
2023/12/24 00:43:04;;;;;;;55.50;1.77;;;;;;;;;;5045313;28;20468;-70
2023/12/24 00:45:31;;;;;;;54.67;1.63;;;;;;;;;;5041321;28;20503;-70
2023/12/24 00:47:58;;;;;;;54.67;1.70;;;;;;;;;;5035186;28;20448;-70
2023/12/24 00:50:25;;;;;;;54.87;1.67;;;;;;;;;;5035413;28;20521;-70
2023/12/24 00:52:52;;;;;;;54.67;1.60;;;;;;;;;;5035163;28;20494;-71
2023/12/24 00:55:19;;;;;;;55.60;1.70;;;;;;;;;;5035363;28;20466;-69
2023/12/24 00:57:46;;;;;;;55.70;1.90;;;;;;;;;;5044348;28;20456;-70
2023/12/24 01:00:16;;;;;;;55.50;1.70;;;;;;;;;;5035420;28;20451;-70
2023/12/24 01:02:43;;;;;;;55.20;1.80;;;;;;;;;;5035401;28;20471;-70
2023/12/24 01:05:10;;;;;;;55.37;1.93;;;;;;;;;;5034481;28;20547;-70
2023/12/24 01:07:37;;;;;;;55.37;1.77;;;;;;;;;;5043304;28;20486;-70
2023/12/24 01:10:05;;;;;;;55.37;1.90;;;;;;;;;;5044101;28;20450;-70
2023/12/24 01:12:33;;;;;;;54.97;1.80;;;;;;;;;;5049617;28;20473;-70
2023/12/24 01:15:00;;;;;;;55.07;1.73;;;;;;;;;;5038908;28;20478;-70
2023/12/24 01:17:28;;;;;;;55.70;1.90;;;;;;;;;;5042495;28;20547;-70
2023/12/24 01:19:57;;;;;;;55.40;1.80;;;;;;;;;;5035063;28;20456;-71
2023/12/24 01:22:25;;;;;;;55.47;1.90;;;;;;;;;;5034829;28;20521;-71
2023/12/24 01:24:52;;;;;;;55.20;1.90;;;;;;;;;;5034871;28;20459;-70
2023/12/24 01:27:19;;;;;;;55.37;1.90;;;;;;;;;;5035106;28;20517;-70
2023/12/24 01:29:46;;;;;;;55.30;1.80;;;;;;;;;;5043515;28;20455;-69
2023/12/24 01:32:13;;;;;;;55.57;2.00;;;;;;;;;;5035364;28;20535;-71
2023/12/24 01:34:41;;;;;;;54.77;1.70;;;;;;;;;;5050472;28;20453;-70
2023/12/24 01:37:08;;;;;;;55.30;1.70;;;;;;;;;;5055635;28;20460;-70
2023/12/24 01:39:36;;;;;;;55.27;1.87;;;;;;;;;;5055417;28;20454;-70
2023/12/24 01:42:03;;;;;;;55.30;1.83;;;;;;;;;;5054417;28;20467;-70
2023/12/24 01:44:30;;;;;;;55.20;2.13;;;;;;;;;;5055071;28;20464;-70
2023/12/24 01:46:57;;;;;;;55.47;1.73;;;;;;;;;;5053908;28;20485;-70
2023/12/24 01:49:24;;;;;;;55.23;1.97;;;;;;;;;;5035255;28;20455;-71
2023/12/24 01:51:53;;;;;;;55.23;1.90;;;;;;;;;;5034878;28;20479;-70
2023/12/24 01:54:20;;;;;;;55.17;2.00;;;;;;;;;;5034778;28;20447;-70
2023/12/24 01:56:48;;;;;;;55.40;1.90;;;;;;;;;;5034818;28;20451;-70
2023/12/24 01:59:15;;;;;;;55.40;1.97;;;;;;;;;;5034532;28;20828;-70
2023/12/24 02:01:42;;;;;;;55.60;1.73;;;;;;;;;;5034603;28;20463;-71
2023/12/24 02:04:09;;;;;;;55.07;1.80;;;;;;;;;;5033863;28;20476;-70
2023/12/24 02:06:36;;;;;;;55.37;1.80;;;;;;;;;;5034915;28;20492;-71
2023/12/24 02:09:05;;;;;;;55.17;2.03;;;;;;;;;;5034998;28;20482;-71
2023/12/24 02:11:32;;;;;;;55.60;2.10;;;;;;;;;;5034715;28;20470;-71
2023/12/24 02:13:59;;;;;;;55.40;1.70;;;;;;;;;;5043456;28;20960;-71
2023/12/24 02:16:27;;;;;;;55.70;2.07;;;;;;;;;;5053172;28;20456;-71
2023/12/24 02:18:55;;;;;;;55.40;2.00;;;;;;;;;;5049387;28;20450;-71
2023/12/24 02:21:23;;;;;;;55.70;1.77;;;;;;;;;;5038363;28;20945;-70
2023/12/24 02:23:50;;;;;;;55.37;1.80;;;;;;;;;;5038034;28;20474;-71
2023/12/24 02:26:23;;;;;;;55.90;2.40;;;;;;;;;;5036770;28;20505;-70
2023/12/24 02:28:52;;;;;;;55.23;2.00;;;;;;;;;;5037465;28;20462;-71
2023/12/24 02:31:21;;;;;;;55.40;1.83;;;;;;;;;;5038494;28;20449;-71
2023/12/24 02:33:51;;;;;;;54.57;1.80;;;;;;;;;;5045904;28;20476;-71
2023/12/24 02:36:18;;;;;;;55.07;1.83;;;;;;;;;;5046617;28;20939;-71
2023/12/24 02:38:47;;;;;;;55.47;2.00;;;;;;;;;;5037635;28;20461;-70
2023/12/24 02:41:14;;;;;;;55.60;2.17;;;;;;;;;;5049022;28;20809;-71
2023/12/24 02:43:41;;;;;;;55.50;1.80;;;;;;;;;;5043404;28;20482;-71
2023/12/24 02:46:09;;;;;;;55.30;1.80;;;;;;;;;;5046081;28;20487;-71
2023/12/24 02:48:36;;;;;;;54.97;2.10;;;;;;;;;;5038958;28;20455;-71
2023/12/24 02:51:04;;;;;;;55.30;1.90;;;;;;;;;;5038338;28;20451;-71
2023/12/24 02:53:31;;;;;;;55.90;2.67;;;;;;;;;;5043728;28;20991;-71
2023/12/24 02:56:00;;;;;;;55.10;1.80;;;;;;;;;;5046048;28;20450;-70
2023/12/24 02:58:27;;;;;;;55.67;2.10;;;;;;;;;;5037715;28;20451;-71
2023/12/24 03:00:54;;;;;;;55.70;2.40;;;;;;;;;;5045540;28;20455;-71
2023/12/24 03:03:21;;;;;;;55.33;2.10;;;;;;;;;;5056395;28;20476;-71
2023/12/24 03:05:48;;;;;;;55.43;1.87;;;;;;;;;;5041711;28;20448;-71
2023/12/24 03:08:15;;;;;;;55.30;1.90;;;;;;;;;;5053849;28;20462;-71
2023/12/24 03:10:42;;;;;;;55.33;1.80;;;;;;;;;;5037585;28;20502;-71
2023/12/24 03:13:11;;;;;;;55.50;1.63;;;;;;;;;;5044265;28;20487;-71
2023/12/24 03:15:38;;;;;;;55.23;1.83;;;;;;;;;;5047972;28;20450;-71
2023/12/24 03:18:05;;;;;;;55.37;2.07;;;;;;;;;;5055458;28;20960;-71
2023/12/24 03:20:32;;;;;;;55.37;2.07;;;;;;;;;;5057595;28;20450;-71
2023/12/24 03:22:59;;;;;;;55.30;1.80;;;;;;;;;;5047907;28;20476;-71
2023/12/24 03:25:26;;;;;;;55.60;2.00;;;;;;;;;;5037143;28;20962;-71
2023/12/24 03:27:54;;;;;;;55.60;2.03;;;;;;;;;;5036411;28;20487;-71
2023/12/24 03:30:22;;;;;;;55.40;1.80;;;;;;;;;;5036395;28;20447;-70
2023/12/24 03:32:49;;;;;;;54.87;1.90;;;;;;;;;;5057295;28;20996;-71
2023/12/24 03:35:16;;;;;;;55.60;1.90;;;;;;;;;;5038565;28;20829;-71
2023/12/24 03:37:43;;;;;;;55.47;2.10;;;;;;;;;;5041871;28;20446;-71
2023/12/24 03:40:11;;;;;;;54.80;1.70;;;;;;;;;;5036489;28;20450;-71
2023/12/24 03:42:38;;;;;;;55.20;1.80;;;;;;;;;;5036275;28;20474;-71
2023/12/24 03:45:05;;;;;;;55.60;1.83;;;;;;;;;;5053502;28;20462;-71
2023/12/24 03:47:34;;;;;;;55.37;1.90;;;;;;;;;;5036554;28;20978;-70
2023/12/24 03:50:01;;;;;;;54.57;1.70;;;;;;;;;;5054168;28;20455;-71
2023/12/24 03:52:28;;;;;;;55.37;2.03;;;;;;;;;;5044095;28;20846;-71
2023/12/24 03:54:55;;;;;;;55.37;2.00;;;;;;;;;;5045250;28;20483;-70
2023/12/24 03:57:22;;;;;;;55.37;1.80;;;;;;;;;;5036630;28;20450;-70
2023/12/24 03:59:49;;;;;;;54.77;1.90;;;;;;;;;;5044817;28;20450;-71
2023/12/24 04:02:17;;;;;;;55.50;1.87;;;;;;;;;;5044337;28;20538;-71
2023/12/24 04:04:47;;;;;;;55.50;1.73;;;;;;;;;;5042491;28;20462;-71
2023/12/24 04:07:16;;;;;;;55.93;3.07;;;;;;;;;;5045749;28;20493;-71
2023/12/24 04:09:43;;;;;;;55.03;1.70;;;;;;;;;;5036056;28;20457;-70
2023/12/24 04:12:10;;;;;;;55.60;1.90;;;;;;;;;;5035203;28;20478;-71
2023/12/24 04:14:38;;;;;;;55.40;1.70;;;;;;;;;;5036409;28;20451;-71
2023/12/24 04:17:05;;;;;;;55.13;1.90;;;;;;;;;;5037517;28;20462;-71
2023/12/24 04:19:32;;;;;;;55.47;1.87;;;;;;;;;;5051532;28;20452;-70
2023/12/24 04:22:01;;;;;;;55.37;1.80;;;;;;;;;;5036311;28;20471;-69
2023/12/24 04:24:28;;;;;;;55.40;1.70;;;;;;;;;;5045180;28;20929;-71
2023/12/24 04:26:55;;;;;;;55.27;1.90;;;;;;;;;;5036305;28;20998;-71
2023/12/24 04:29:22;;;;;;;55.50;2.10;;;;;;;;;;5036158;28;20456;-70
2023/12/24 04:31:49;;;;;;;55.67;2.03;;;;;;;;;;5035350;28;20474;-70
2023/12/24 04:34:16;;;;;;;55.37;1.70;;;;;;;;;;5035235;28;20461;-70
2023/12/24 04:36:43;;;;;;;55.30;2.10;;;;;;;;;;5035077;28;20455;-70
2023/12/24 04:39:12;;;;;;;55.50;2.07;;;;;;;;;;5034675;28;20451;-70
2023/12/24 04:41:39;;;;;;;55.07;1.57;;;;;;;;;;5034817;28;21085;-71
2023/12/24 04:44:07;;;;;;;55.47;2.10;;;;;;;;;;5035151;28;20448;-70
2023/12/24 04:46:34;;;;;;;55.30;1.77;;;;;;;;;;5035665;28;20531;-69
2023/12/24 04:49:01;;;;;;;54.83;1.80;;;;;;;;;;5034850;28;20454;-70
2023/12/24 04:51:28;;;;;;;55.27;1.93;;;;;;;;;;5054796;28;20456;-69
2023/12/24 04:53:55;;;;;;;55.27;1.90;;;;;;;;;;5054565;28;20950;-71
2023/12/24 04:56:23;;;;;;;55.27;1.60;;;;;;;;;;5054970;28;20447;-71
2023/12/24 04:58:51;;;;;;;55.57;2.10;;;;;;;;;;5048184;28;20447;-71
2023/12/24 05:01:18;;;;;;;55.60;1.90;;;;;;;;;;5034792;28;20482;-70
2023/12/24 05:03:45;;;;;;;55.50;1.93;;;;;;;;;;5034336;28;20482;-71
2023/12/24 05:06:13;;;;;;;55.07;2.00;;;;;;;;;;5034726;28;20448;-71
2023/12/24 05:08:41;;;;;;;55.60;1.80;;;;;;;;;;5034617;28;20482;-71
2023/12/24 05:11:08;;;;;;;54.77;1.70;;;;;;;;;;5035146;28;20546;-71
2023/12/24 05:13:37;;;;;;;55.40;1.87;;;;;;;;;;5035648;28;20472;-71
2023/12/24 05:16:04;;;;;;;55.17;1.70;;;;;;;;;;5035423;28;20937;-71
2023/12/24 05:18:31;;;;;;;54.90;1.70;;;;;;;;;;5048396;28;20449;-72
2023/12/24 05:20:58;;;;;;;55.07;1.60;;;;;;;;;;5047029;28;20966;-70
2023/12/24 05:23:26;;;;;;;55.27;1.77;;;;;;;;;;5054365;28;20470;-71
2023/12/24 05:25:53;;;;;;;55.50;2.03;;;;;;;;;;5047324;28;20457;-71
2023/12/24 05:28:20;;;;;;;55.20;1.70;;;;;;;;;;5055308;28;20485;-71
2023/12/24 05:30:49;;;;;;;55.50;1.97;;;;;;;;;;5055585;28;20803;-71
2023/12/24 05:33:16;;;;;;;55.37;1.60;;;;;;;;;;5055047;28;20470;-72
2023/12/24 05:35:43;;;;;;;55.60;1.80;;;;;;;;;;5047027;28;20453;-71
2023/12/24 05:38:10;;;;;;;55.30;1.80;;;;;;;;;;5039128;28;20449;-71
2023/12/24 05:40:37;;;;;;;55.60;1.93;;;;;;;;;;5055499;28;20482;-71
2023/12/24 05:43:04;;;;;;;55.13;1.73;;;;;;;;;;5055352;28;20473;-71
2023/12/24 05:45:33;;;;;;;55.40;2.00;;;;;;;;;;5055164;28;20461;-71
2023/12/24 05:48:02;;;;;;;55.50;1.90;;;;;;;;;;5055032;28;20491;-71
2023/12/24 05:50:29;;;;;;;55.27;1.60;;;;;;;;;;5055410;28;20539;-71
2023/12/24 05:52:56;;;;;;;55.40;1.80;;;;;;;;;;5057174;28;20844;-71
2023/12/24 05:55:23;;;;;;;55.27;1.70;;;;;;;;;;5055911;28;20467;-72
2023/12/24 05:57:50;;;;;;;55.53;1.60;;;;;;;;;;5039584;28;20442;-71
2023/12/24 06:00:18;;;;;;;55.40;1.97;;;;;;;;;;5038466;28;20463;-71
2023/12/24 06:02:45;;;;;;;55.20;1.70;;;;;;;;;;5051916;28;20857;-72
2023/12/24 06:05:14;;;;;;;54.83;1.77;;;;;;;;;;5040780;28;20458;-71
2023/12/24 06:07:41;;;;;;;55.70;1.90;;;;;;;;;;5043930;28;20491;-72
2023/12/24 06:10:08;;;;;;;55.07;1.57;;;;;;;;;;5058182;28;20457;-71
2023/12/24 06:12:36;;;;;;;54.97;1.70;;;;;;;;;;5050342;28;20487;-71
2023/12/24 06:15:04;;;;;;;55.60;1.70;;;;;;;;;;5058028;28;20469;-72
2023/12/24 06:17:31;;;;;;;55.50;1.90;;;;;;;;;;5049880;28;20872;-70
2023/12/24 06:19:59;;;;;;;55.17;2.20;;;;;;;;;;5058015;28;20458;-71
2023/12/24 06:22:27;;;;;;;54.97;1.60;;;;;;;;;;5056952;28;20471;-71
2023/12/24 06:24:54;;;;;;;55.47;1.90;;;;;;;;;;5049561;28;20830;-71
2023/12/24 06:27:23;;;;;;;54.97;1.90;;;;;;;;;;5058187;28;20497;-72
2023/12/24 06:29:50;;;;;;;55.47;1.80;;;;;;;;;;5057211;28;20450;-70
2023/12/24 06:32:17;;;;;;;56.00;2.17;;;;;;;;;;5057715;28;20470;-71
2023/12/24 06:34:44;;;;;;;55.43;1.90;;;;;;;;;;5057600;28;20489;-72
2023/12/24 06:37:11;;;;;;;55.27;2.10;;;;;;;;;;5049583;28;20454;-71
2023/12/24 06:39:40;;;;;;;55.60;2.10;;;;;;;;;;5057547;28;20452;-71
2023/12/24 06:42:07;;;;;;;55.17;1.70;;;;;;;;;;5041510;28;20477;-72
2023/12/24 06:44:34;;;;;;;55.27;1.73;;;;;;;;;;5042096;28;20480;-70
2023/12/24 06:47:01;;;;;;;55.80;2.30;;;;;;;;;;5058669;28;20451;-71
2023/12/24 06:49:28;;;;;;;55.40;1.83;;;;;;;;;;5059550;28;20827;-71
2023/12/24 06:51:55;;;;;;;55.37;1.80;;;;;;;;;;5052266;28;20459;-72
2023/12/24 06:54:22;;;;;;;55.40;2.10;;;;;;;;;;5057348;28;20456;-70
2023/12/24 06:56:51;;;;;;;55.50;1.90;;;;;;;;;;5052984;28;20456;-71
2023/12/24 06:59:18;;;;;;;55.07;1.80;;;;;;;;;;5040161;28;20451;-71
2023/12/24 07:01:45;;;;;;;55.43;2.03;;;;;;;;;;5053246;28;20941;-71
2023/12/24 07:04:12;;;;;;;55.70;2.37;;;;;;;;;;5038603;28;20446;-72
2023/12/24 07:06:39;;;;;;;55.30;1.70;;;;;;;;;;5040339;28;20914;-72
2023/12/24 07:09:07;;;;;;;55.30;2.20;;;;;;;;;;5047782;28;20521;-72
2023/12/24 07:11:34;;;;;;;55.40;2.00;;;;;;;;;;5045900;28;20455;-72
2023/12/24 07:14:03;;;;;;;55.47;1.90;;;;;;;;;;5046248;28;20450;-71
2023/12/24 07:16:30;;;;;;;55.67;2.17;;;;;;;;;;5051279;28;20463;-72
2023/12/24 07:18:58;;;;;;;55.40;2.10;;;;;;;;;;5051195;28;20449;-72
2023/12/24 07:21:25;;;;;;;55.37;1.80;;;;;;;;;;5059160;28;20929;-72
2023/12/24 07:23:53;;;;;;;55.30;1.90;;;;;;;;;;5054370;28;20446;-72
2023/12/24 07:26:20;;;;;;;55.30;1.90;;;;;;;;;;5047324;28;20460;-72
2023/12/24 07:28:47;;;;;;;55.40;1.77;;;;;;;;;;5038614;28;20489;-71
2023/12/24 07:31:16;;;;;;;55.53;1.83;;;;;;;;;;5054449;28;20452;-71
2023/12/24 07:33:43;;;;;;;55.20;1.80;;;;;;;;;;5050947;28;20852;-71
2023/12/24 07:36:10;;;;;;;55.13;1.80;;;;;;;;;;5058461;28;21005;-71
2023/12/24 07:38:38;;;;;;;55.40;1.90;;;;;;;;;;5054395;28;20455;-71
2023/12/24 07:41:05;;;;;;;55.60;2.00;;;;;;;;;;5054660;28;20907;-71
2023/12/24 07:43:32;;;;;;;56.87;2.10;;;;;;;;;;5058283;28;20462;-71
2023/12/24 07:45:59;;;;;;;55.60;2.00;;;;;;;;;;5059297;28;20547;-71
2023/12/24 07:48:27;;;;;;;55.30;1.80;;;;;;;;;;5057569;28;20519;-71
2023/12/24 07:50:54;;;;;;;55.43;1.83;;;;;;;;;;5054037;28;21013;-71
2023/12/24 07:53:21;;;;;;;55.20;1.60;;;;;;;;;;5058884;28;20476;-70
2023/12/24 07:55:48;;;;;;;55.50;1.70;;;;;;;;;;5059496;28;20449;-71
2023/12/24 07:58:16;;;;;;;55.30;1.90;;;;;;;;;;5050741;28;20903;-71
2023/12/24 08:00:43;;;;;;;55.50;2.00;;;;;;;;;;5040281;28;20447;-71
2023/12/24 08:03:10;;;;;;;55.53;1.90;;;;;;;;;;5039111;28;20619;-71
2023/12/24 08:05:38;;;;;;;55.30;1.97;;;;;;;;;;5051432;28;20449;-71
2023/12/24 08:08:06;;;;;;;55.47;1.90;;;;;;;;;;5059336;28;20554;-71
2023/12/24 08:10:33;;;;;;;55.53;1.87;;;;;;;;;;5039107;28;20450;-72
2023/12/24 08:13:00;;;;;;;55.27;1.83;;;;;;;;;;5046319;28;20567;-70
2023/12/24 08:15:27;;;;;;;55.40;2.10;;;;;;;;;;5054188;28;20518;-71
2023/12/24 08:17:54;;;;;;;55.40;2.03;;;;;;;;;;5036949;28;20451;-70
2023/12/24 08:20:21;;;;;;;55.37;1.87;;;;;;;;;;5045647;28;20532;-71
2023/12/24 08:22:50;;;;;;;55.43;1.70;;;;;;;;;;5036958;28;20884;-71
2023/12/24 08:25:17;;;;;;;55.30;1.90;;;;;;;;;;5037462;28;20946;-72
2023/12/24 08:27:44;;;;;;;55.23;1.77;;;;;;;;;;5045664;28;20470;-72
2023/12/24 08:30:12;;;;;;;55.40;1.70;;;;;;;;;;5037592;28;20456;-72
2023/12/24 08:32:39;;;;;;;55.47;1.63;;;;;;;;;;5049113;28;20482;-72
2023/12/24 08:35:06;;;;;;;55.57;1.83;;;;;;;;;;5057584;28;20454;-72
2023/12/24 08:37:35;;;;;;;55.40;1.60;;;;;;;;;;5057388;28;20442;-72
2023/12/24 08:40:04;;;;;;;56.37;2.10;;;;;;;;;;5057287;28;20501;-71
2023/12/24 08:42:31;;;;;;;55.50;2.00;;;;;;;;;;5057314;28;20470;-72
2023/12/24 08:44:58;;;;;;;55.37;1.90;;;;;;;;;;5057676;28;20454;-72
2023/12/24 08:47:25;;;;;;;55.57;1.97;;;;;;;;;;5047267;28;20458;-72
2023/12/24 08:49:52;;;;;;;55.37;1.80;;;;;;;;;;5038148;28;20496;-72
2023/12/24 08:52:20;;;;;;;55.03;1.83;;;;;;;;;;5037080;28;20476;-72
2023/12/24 08:54:47;;;;;;;55.27;2.03;;;;;;;;;;5036667;28;20545;-72
2023/12/24 08:57:16;;;;;;;55.30;1.83;;;;;;;;;;5037072;28;20818;-72
2023/12/24 08:59:43;;;;;;;55.37;1.97;;;;;;;;;;5049284;28;20500;-71
2023/12/24 09:02:11;;;;;;;55.70;1.80;;;;;;;;;;5041108;28;20471;-72
2023/12/24 09:04:38;;;;;;;55.40;1.93;;;;;;;;;;5047731;28;20455;-72
2023/12/24 09:07:05;;;;;;;55.07;1.80;;;;;;;;;;5049286;28;20457;-72
2023/12/24 09:09:32;;;;;;;55.60;1.87;;;;;;;;;;5044716;28;20938;-71
2023/12/24 09:11:59;;;;;;;55.70;1.90;;;;;;;;;;5035809;28;20474;-71
2023/12/24 09:14:28;;;;;;;55.70;1.90;;;;;;;;;;5037560;28;20454;-71
2023/12/24 09:16:55;;;;;;;55.60;2.00;;;;;;;;;;5055630;28;20452;-72
2023/12/24 09:19:22;;;;;;;55.47;1.90;;;;;;;;;;5056443;28;20988;-71
2023/12/24 09:21:49;;;;;;;55.27;2.00;;;;;;;;;;5056604;28;20815;-71
2023/12/24 09:24:16;;;;;;;55.27;1.80;;;;;;;;;;5058194;28;20451;-71
2023/12/24 09:26:43;;;;;;;55.60;1.90;;;;;;;;;;5060264;28;20453;-71
2023/12/24 09:29:12;;;;;;;55.57;1.60;;;;;;;;;;5066122;28;20496;-71
2023/12/24 09:31:40;;;;;;;55.60;2.10;;;;;;;;;;5047106;28;20463;-71
2023/12/24 09:34:08;;;;;;;55.47;1.77;;;;;;;;;;5046523;28;20454;-70
2023/12/24 09:36:36;;;;;;;55.17;1.70;;;;;;;;;;5043761;28;20568;-71
2023/12/24 09:39:03;;;;;;;55.30;1.83;;;;;;;;;;5052960;28;20460;-71
2023/12/24 09:41:30;;;;;;;55.40;2.10;;;;;;;;;;5055259;28;20562;-70
2023/12/24 09:43:57;;;;;;;55.50;2.53;;;;;;;;;;5045824;28;20455;-71
2023/12/24 09:46:24;;;;;;;54.73;1.80;;;;;;;;;;5044934;28;20467;-70
2023/12/24 09:48:53;;;;;;;55.60;2.00;;;;;;;;;;5045490;28;20486;-71
2023/12/24 09:51:20;;;;;;;55.43;1.97;;;;;;;;;;5045106;28;20454;-71
2023/12/24 09:53:49;;;;;;;55.17;1.90;;;;;;;;;;5044905;28;20475;-71
2023/12/24 09:56:16;;;;;;;55.70;2.00;;;;;;;;;;5044872;28;20475;-69
2023/12/24 09:58:44;;;;;;;55.30;2.00;;;;;;;;;;5044781;28;20451;-71
2023/12/24 10:01:11;;;;;;;55.60;2.03;;;;;;;;;;5044897;28;20460;-71
2023/12/24 10:03:38;;;;;;;55.50;2.00;;;;;;;;;;5043741;28;20474;-72
2023/12/24 10:06:08;;;;;;;55.30;1.80;;;;;;;;;;5044601;28;20454;-72
2023/12/24 10:08:35;;;;;;;55.70;2.20;;;;;;;;;;5043533;28;20508;-72
2023/12/24 10:11:15;;;;;;;55.17;1.83;;;;;;;;;;5046042;28;20456;-72
2023/12/24 10:13:42;;;;;;;55.17;1.90;;;;;;;;;;5051093;28;20474;-72
2023/12/24 10:16:10;;;;;;;55.50;2.00;;;;;;;;;;5045952;28;20921;-72
2023/12/24 10:18:37;;;;;;;55.00;1.90;;;;;;;;;;5042474;28;20530;-71
2023/12/24 10:21:05;;;;;;;55.50;2.00;;;;;;;;;;5055493;28;20816;-72
2023/12/24 10:23:34;;;;;;;55.17;2.40;;;;;;;;;;5049986;28;20462;-72
2023/12/24 10:26:04;;;;;;;54.97;1.80;;;;;;;;;;5041420;28;20444;-72
2023/12/24 10:28:32;;;;;;;55.47;1.83;;;;;;;;;;5044498;28;20492;-71
2023/12/24 10:31:07;;;;;;;55.23;1.80;;;;;;;;;;5059381;28;20504;-72
2023/12/24 10:33:34;;;;;;;55.23;2.03;;;;;;;;;;5046305;28;20538;-71
2023/12/24 10:36:01;;;;;;;55.60;1.80;;;;;;;;;;5047482;28;20462;-71
2023/12/24 10:38:28;;;;;;;55.17;1.80;;;;;;;;;;5040677;28;20458;-72
2023/12/24 10:40:57;;;;;;;55.13;1.93;;;;;;;;;;5051588;28;20459;-71
2023/12/24 10:43:24;;;;;;;55.70;2.10;;;;;;;;;;5047372;28;20978;-71
2023/12/24 10:45:51;;;;;;;56.00;2.10;;;;;;;;;;5047790;28;20955;-71
2023/12/24 10:48:18;;;;;;;55.10;2.03;;;;;;;;;;5050139;28;20443;-70
2023/12/24 10:50:45;;;;;;;55.60;1.80;;;;;;;;;;5045615;28;20458;-69
2023/12/24 10:53:13;;;;;;;55.40;1.80;;;;;;;;;;5039399;28;20482;-71
2023/12/24 10:55:40;;;;;;;55.30;1.80;;;;;;;;;;5047058;28;20460;-71
2023/12/24 10:58:13;;;;;;;55.00;1.80;;;;;;;;;;5043640;28;20448;-71
2023/12/24 11:00:40;;;;;;;55.50;1.90;;;;;;;;;;5056858;28;20444;-71
2023/12/24 11:03:07;;;;;;;55.60;1.80;;;;;;;;;;5049364;28;20479;-71
2023/12/24 11:05:48;;;;;;;55.60;1.80;;;;;;;;;;5056188;28;20510;-71
2023/12/24 11:08:30;;;;;;;55.37;2.20;;;;;;;;;;5057635;28;20977;-71
2023/12/24 11:10:57;;;;;;;55.60;2.10;;;;;;;;;;5058117;28;20459;-72
2023/12/24 11:13:43;;;;;;;55.60;1.97;;;;;;;;;;5053882;28;20467;-71
2023/12/24 11:16:11;;;;;;;55.47;1.87;;;;;;;;;;5061537;28;20644;-71
2023/12/24 11:18:43;;;;;;;55.17;1.90;;;;;;;;;;5059878;28;20467;-71
2023/12/24 11:21:11;;;;;;;55.70;2.00;;;;;;;;;;5056894;28;20940;-70
2023/12/24 11:23:39;;;;;;;55.40;1.90;;;;;;;;;;5068316;28;20470;-71
2023/12/24 11:26:21;;;;;;;55.30;1.80;;;;;;;;;;5064799;28;20509;-70
2023/12/24 11:28:48;;;;;;;55.30;1.80;;;;;;;;;;5064103;28;20554;-70
2023/12/24 11:31:23;;;;;;;55.47;1.70;;;;;;;;;;5057493;28;20453;-71
2023/12/24 11:33:51;;;;;;;55.40;1.80;;;;;;;;;;5060224;28;20550;-69
2023/12/24 11:36:20;;;;;;;54.67;1.80;;;;;;;;;;5048095;28;20439;-70
2023/12/24 11:38:47;;;;;;;55.13;2.00;;;;;;;;;;5058919;28;20453;-68
2023/12/24 11:41:15;;;;;;;55.57;1.77;;;;;;;;;;5065564;28;20955;-69
2023/12/24 11:43:43;;;;;;;54.67;1.80;;;;;;;;;;5061660;28;20473;-70
2023/12/24 11:46:10;;;;;;;55.20;1.83;;;;;;;;;;5045184;28;20543;-69
2023/12/24 11:48:39;;;;;;;55.13;1.70;;;;;;;;;;5043711;28;20453;-70
2023/12/24 11:51:06;;;;;;;55.30;1.57;;;;;;;;;;5042547;28;20827;-71
2023/12/24 11:53:34;;;;;;;55.07;2.00;;;;;;;;;;5042002;28;20478;-71
2023/12/24 11:56:05;;;;;;;54.90;1.70;;;;;;;;;;5042817;28;20487;-70
2023/12/24 11:58:32;;;;;;;55.67;1.70;;;;;;;;;;5046558;28;20528;-70
2023/12/24 12:01:00;;;;;;;55.67;1.80;;;;;;;;;;5053719;28;20524;-71
2023/12/24 12:03:27;;;;;;;55.17;1.80;;;;;;;;;;5057016;28;20578;-70
2023/12/24 12:05:56;;;;;;;55.17;1.80;;;;;;;;;;5059802;28;20797;-69
2023/12/24 12:08:23;;;;;;;55.17;1.80;;;;;;;;;;5059462;28;20504;-71
2023/12/24 12:10:51;;;;;;;55.30;1.80;;;;;;;;;;5055373;28;20942;-71
2023/12/24 12:13:18;;;;;;;54.97;2.00;;;;;;;;;;5060088;28;20561;-71
2023/12/24 12:15:45;;;;;;;55.27;1.67;;;;;;;;;;5056978;28;20523;-71
2023/12/24 12:18:14;;;;;;;55.60;1.93;;;;;;;;;;5052625;28;20826;-71
2023/12/24 12:20:41;;;;;;;55.47;1.80;;;;;;;;;;5059789;28;20502;-69
2023/12/24 12:23:09;;;;;;;55.37;1.83;;;;;;;;;;5053465;28;20470;-71
2023/12/24 12:25:36;;;;;;;54.70;1.70;;;;;;;;;;5057358;28;20517;-71
2023/12/24 12:28:04;;;;;;;54.93;1.80;;;;;;;;;;5059498;28;20491;-71
2023/12/24 12:30:31;;;;;;;55.23;1.70;;;;;;;;;;5059120;28;20922;-70
2023/12/24 12:32:58;;;;;;;55.07;1.50;;;;;;;;;;5059039;28;20557;-71
2023/12/24 12:35:25;;;;;;;55.70;1.80;;;;;;;;;;5058832;28;20455;-69
2023/12/24 12:37:52;;;;;;;55.67;1.80;;;;;;;;;;5058410;28;20477;-71
2023/12/24 12:40:21;;;;;;;54.90;1.70;;;;;;;;;;5058317;28;20449;-71
2023/12/24 12:42:48;;;;;;;55.50;1.80;;;;;;;;;;5049991;28;20922;-71
2023/12/24 12:45:15;;;;;;;55.30;1.77;;;;;;;;;;5058118;28;20780;-71
2023/12/24 12:47:42;;;;;;;55.50;1.90;;;;;;;;;;5055529;28;20458;-71
2023/12/24 12:50:10;;;;;;;55.70;1.90;;;;;;;;;;5050660;28;20517;-70
2023/12/24 12:52:37;;;;;;;55.13;1.70;;;;;;;;;;5057844;28;20734;-71
2023/12/24 12:55:05;;;;;;;55.23;1.73;;;;;;;;;;5057994;28;20450;-71
2023/12/24 12:57:34;;;;;;;55.07;1.50;;;;;;;;;;5040785;28;20458;-71
2023/12/24 13:00:07;;;;;;;55.50;1.90;;;;;;;;;;5038471;28;20451;-70
2023/12/24 13:02:35;;;;;;;55.30;1.80;;;;;;;;;;5037252;28;20475;-71
2023/12/24 13:05:02;;;;;;;55.60;1.80;;;;;;;;;;5038814;28;20535;-71
2023/12/24 13:07:33;;;;;;;55.17;1.70;;;;;;;;;;5038994;28;20454;-71
2023/12/24 13:10:00;;;;;;;55.53;2.00;;;;;;;;;;5038822;28;20846;-71
2023/12/24 13:12:29;;;;;;;55.60;1.90;;;;;;;;;;5038231;28;20476;-70
2023/12/24 13:14:59;;;;;;;55.27;1.80;;;;;;;;;;5038416;28;20460;-71
2023/12/24 13:17:26;;;;;;;54.83;1.77;;;;;;;;;;5038266;28;20871;-71
2023/12/24 13:19:54;;;;;;;55.37;1.87;;;;;;;;;;5039774;28;20515;-71
2023/12/24 13:22:23;;;;;;;55.07;1.90;;;;;;;;;;5039514;28;20630;-71
2023/12/24 13:24:52;;;;;;;55.40;1.60;;;;;;;;;;5040178;28;20960;-71
2023/12/24 13:27:19;;;;;;;55.30;1.93;;;;;;;;;;5040068;28;20467;-71
2023/12/24 13:29:46;;;;;;;55.27;1.80;;;;;;;;;;5048383;28;21030;-70
2023/12/24 13:32:14;;;;;;;54.97;1.77;;;;;;;;;;5041651;28;20495;-71
2023/12/24 13:34:42;;;;;;;55.70;1.70;;;;;;;;;;5054658;28;20467;-71
2023/12/24 13:37:09;;;;;;;55.27;1.83;;;;;;;;;;5057755;28;20442;-71
2023/12/24 13:39:36;;;;;;;55.23;1.70;;;;;;;;;;5050938;28;20855;-71
2023/12/24 13:42:03;;;;;;;55.37;1.70;;;;;;;;;;5058367;28;20541;-70
2023/12/24 13:44:30;;;;;;;54.90;1.70;;;;;;;;;;5057141;28;20454;-68
2023/12/24 13:46:57;;;;;;;55.60;1.90;;;;;;;;;;5055538;28;21008;-71
2023/12/24 13:49:28;;;;;;;55.50;1.93;;;;;;;;;;5050443;28;20472;-71
2023/12/24 13:51:55;;;;;;;55.33;2.10;;;;;;;;;;5050639;28;20477;-71
2023/12/24 13:54:23;;;;;;;54.93;1.53;;;;;;;;;;5055121;28;20439;-71
2023/12/24 13:56:51;;;;;;;55.57;1.90;;;;;;;;;;5051920;28;20477;-71
2023/12/24 13:59:19;;;;;;;54.87;1.70;;;;;;;;;;5044498;28;20444;-70
2023/12/24 14:01:46;;;;;;;55.13;1.90;;;;;;;;;;5045937;28;20457;-71
2023/12/24 14:04:14;;;;;;;54.97;1.70;;;;;;;;;;5046038;28;20455;-70
2023/12/24 14:06:42;;;;;;;55.23;2.00;;;;;;;;;;5054329;28;20441;-70
2023/12/24 14:09:10;;;;;;;55.40;1.90;;;;;;;;;;5052610;28;20447;-71
2023/12/24 14:11:38;;;;;;;54.87;1.80;;;;;;;;;;5049153;28;20490;-70
2023/12/24 14:14:05;;;;;;;54.93;1.60;;;;;;;;;;5038540;28;20460;-70
2023/12/24 14:16:33;;;;;;;55.90;2.47;;;;;;;;;;5041717;28;20447;-71
2023/12/24 14:19:00;;;;;;;55.13;1.80;;;;;;;;;;5041269;28;20964;-71
2023/12/24 14:21:29;;;;;;;55.77;1.83;;;;;;;;;;5041264;28;20458;-71
2023/12/24 14:23:56;;;;;;;55.60;1.70;;;;;;;;;;5040805;28;20451;-71
2023/12/24 14:26:24;;;;;;;55.70;1.73;;;;;;;;;;5042112;28;20446;-70
2023/12/24 14:28:51;;;;;;;55.70;1.90;;;;;;;;;;5041363;28;20465;-71
2023/12/24 14:31:18;;;;;;;55.63;1.90;;;;;;;;;;5041024;28;21081;-68
2023/12/24 14:33:45;;;;;;;54.87;1.77;;;;;;;;;;5041404;28;20488;-71